createdAt,value
2023-05-01T00:00:37.890Z,98997.91
2023-05-01T00:03:04.687Z,99046.09
2023-05-01T00:05:31.916Z,99044.78
2023-05-01T00:07:58.786Z,99026.63
2023-05-01T00:10:25.668Z,99044.00
2023-05-01T00:12:52.510Z,99069.09
2023-05-01T00:15:19.203Z,99069.59
2023-05-01T00:17:46.233Z,99071.66
2023-05-01T00:20:13.222Z,99072.00
2023-05-01T00:22:39.965Z,99065.81
2023-05-01T00:25:07.471Z,99058.53
2023-05-01T00:27:36.618Z,99053.56
2023-05-01T00:30:03.810Z,99051.66
2023-05-01T00:32:30.692Z,99042.72
2023-05-01T00:34:58.062Z,99034.53
2023-05-01T00:37:24.689Z,99059.81
2023-05-01T00:39:51.468Z,99065.72
2023-05-01T00:42:18.213Z,99055.72
2023-05-01T00:44:44.953Z,99045.03
2023-05-01T00:47:11.995Z,99103.06
2023-05-01T00:49:38.943Z,99099.56
2023-05-01T00:52:05.674Z,99088.88
2023-05-01T00:54:32.374Z,99127.34
2023-05-01T00:57:00.618Z,99131.44
2023-05-01T00:59:27.509Z,99119.84
2023-05-01T01:01:56.762Z,99158.47
2023-05-01T01:04:23.583Z,99200.06
2023-05-01T01:06:59.009Z,99233.78
2023-05-01T01:09:44.413Z,99272.22
2023-05-01T01:12:32.953Z,99335.34
2023-05-01T01:15:04.142Z,99417.13
2023-05-01T01:17:39.240Z,99423.97
2023-05-01T01:20:30.859Z,99515.34
2023-05-01T01:23:03.699Z,99570.41
2023-05-01T01:25:51.073Z,99598.59
2023-05-01T01:28:43.948Z,99712.34
2023-05-01T01:31:14.495Z,99776.03
2023-05-01T01:33:49.558Z,99873.75
2023-05-01T01:36:19.648Z,99893.63
2023-05-01T01:39:03.159Z,99925.97
2023-05-01T01:41:33.314Z,99927.94
2023-05-01T01:45:00.673Z,99966.03
2023-05-01T01:47:28.639Z,99993.06
2023-05-01T01:49:56.950Z,100006.19
2023-05-01T01:52:25.231Z,100006.50
2023-05-01T01:54:55.110Z,100049.81
2023-05-01T01:57:23.022Z,100069.63
2023-05-01T01:59:51.383Z,100079.75
2023-05-01T02:02:20.792Z,100070.22
2023-05-01T02:04:51.978Z,100068.16
2023-05-01T02:07:20.456Z,100041.16
2023-05-01T02:09:48.568Z,100013.38
2023-05-01T02:12:17.144Z,99973.25
2023-05-01T02:14:44.775Z,99890.13
2023-05-01T02:17:11.943Z,99836.19
2023-05-01T02:19:42.498Z,99780.06
2023-05-01T02:22:10.242Z,99706.50
2023-05-01T02:24:38.361Z,99671.25
2023-05-01T02:27:10.920Z,99617.94
2023-05-01T02:29:37.850Z,99619.44
2023-05-01T02:32:04.681Z,99612.91
2023-05-01T02:34:34.871Z,99599.28
2023-05-01T02:37:02.605Z,99546.59
2023-05-01T02:39:29.393Z,99593.69
2023-05-01T02:41:58.617Z,99546.69
2023-05-01T02:44:26.582Z,99601.44
2023-05-01T02:46:53.989Z,99543.19
2023-05-01T02:49:21.675Z,99582.53
2023-05-01T02:51:48.803Z,99530.53
2023-05-01T02:54:16.478Z,99558.22
2023-05-01T02:56:43.380Z,99537.91
2023-05-01T02:59:10.073Z,99539.69
2023-05-01T03:01:37.080Z,99517.88
2023-05-01T03:04:04.221Z,99511.94
2023-05-01T03:06:31.319Z,99532.06
2023-05-01T03:08:58.042Z,99534.72
2023-05-01T03:11:24.779Z,99541.31
2023-05-01T03:13:51.577Z,99549.56
2023-05-01T03:16:18.711Z,99546.91
2023-05-01T03:18:45.516Z,99570.22
2023-05-01T03:21:13.103Z,99558.00
2023-05-01T03:23:39.980Z,99594.91
2023-05-01T03:26:07.801Z,99573.75
2023-05-01T03:28:34.559Z,99597.16
2023-05-01T03:31:01.475Z,99635.78
2023-05-01T03:33:28.241Z,99653.88
2023-05-01T03:36:05.821Z,99651.25
2023-05-01T03:38:33.081Z,99628.88
2023-05-01T03:41:00.249Z,99620.09
2023-05-01T03:43:26.911Z,99611.06
2023-05-01T03:45:53.754Z,99667.09
2023-05-01T03:48:20.932Z,99711.28
2023-05-01T03:50:47.794Z,99738.88
2023-05-01T03:53:14.764Z,99812.41
2023-05-01T03:55:41.771Z,99855.19
2023-05-01T03:58:08.566Z,99855.56
2023-05-01T04:00:35.285Z,99903.13
2023-05-01T04:03:02.295Z,99936.56
2023-05-01T04:05:30.053Z,99963.59
2023-05-01T04:07:57.214Z,99938.94
2023-05-01T04:10:23.912Z,99965.16
2023-05-01T04:12:50.681Z,99972.72
2023-05-01T04:15:17.511Z,99980.56
2023-05-01T04:17:44.481Z,100010.97
2023-05-01T04:20:11.648Z,100016.28
2023-05-01T04:22:38.427Z,100065.59
2023-05-01T04:25:05.576Z,100024.03
2023-05-01T04:27:32.254Z,100071.06
2023-05-01T04:29:59.038Z,100024.66
2023-05-01T04:32:25.995Z,100080.50
2023-05-01T04:34:53.625Z,100121.00
2023-05-01T04:37:20.335Z,100148.38
2023-05-01T04:39:47.002Z,100136.81
2023-05-01T04:42:13.714Z,100158.75
2023-05-01T04:44:40.451Z,100138.44
2023-05-01T04:47:07.676Z,100182.91
2023-05-01T04:49:34.840Z,100113.81
2023-05-01T04:52:01.598Z,100101.72
2023-05-01T04:54:28.320Z,99682.97
2023-05-01T04:56:54.969Z,99312.44
2023-05-01T04:59:21.860Z,99292.06
2023-05-01T05:01:48.711Z,99289.03
2023-05-01T05:04:15.422Z,99293.25
2023-05-01T05:06:42.307Z,99297.78
2023-05-01T05:09:09.145Z,99278.69
2023-05-01T05:11:35.937Z,99292.78
2023-05-01T05:14:02.860Z,99279.91
2023-05-01T05:16:30.029Z,99287.06
2023-05-01T05:18:57.826Z,99298.78
2023-05-01T05:21:24.548Z,99300.09
2023-05-01T05:23:51.258Z,99291.78
2023-05-01T05:26:18.756Z,99306.47
2023-05-01T05:28:45.796Z,99310.28
2023-05-01T05:31:12.722Z,99349.44
2023-05-01T05:33:39.498Z,99324.53
2023-05-01T05:36:06.865Z,99321.28
2023-05-01T05:38:33.555Z,99344.31
2023-05-01T05:41:01.185Z,99338.44
2023-05-01T05:43:28.398Z,99354.03
2023-05-01T05:45:59.102Z,99341.38
2023-05-01T05:48:26.024Z,99336.28
2023-05-01T05:50:53.146Z,99327.44
2023-05-01T05:53:20.456Z,99296.31
2023-05-01T05:55:48.377Z,99347.38
2023-05-01T05:58:20.264Z,99328.28
2023-05-01T06:00:48.600Z,99360.50
2023-05-01T06:03:16.390Z,99369.66
2023-05-01T06:05:43.714Z,99382.84
2023-05-01T06:08:10.930Z,99373.59
2023-05-01T06:10:39.739Z,99353.84
2023-05-01T06:13:14.061Z,99368.91
2023-05-01T06:15:41.800Z,99376.31
2023-05-01T06:18:09.144Z,99400.97
2023-05-01T06:20:36.550Z,99391.50
2023-05-01T06:23:03.564Z,99386.31
2023-05-01T06:25:30.311Z,99392.41
2023-05-01T06:27:57.037Z,99382.47
2023-05-01T06:30:23.756Z,99387.94
2023-05-01T06:32:50.538Z,99402.91
2023-05-01T06:35:17.269Z,99409.31
2023-05-01T06:37:44.035Z,99394.19
2023-05-01T06:40:11.529Z,99394.00
2023-05-01T06:42:39.066Z,99420.59
2023-05-01T06:45:07.447Z,99434.31
2023-05-01T06:47:34.265Z,99452.75
2023-05-01T06:50:02.886Z,99414.41
2023-05-01T06:52:31.255Z,99456.97
2023-05-01T06:54:57.937Z,99419.69
2023-05-01T06:57:24.699Z,99404.66
2023-05-01T06:59:51.412Z,99411.13
2023-05-01T07:02:18.334Z,99446.63
2023-05-01T07:04:45.478Z,99434.00
2023-05-01T07:07:12.355Z,99435.59
2023-05-01T07:09:40.550Z,99429.66
2023-05-01T07:12:07.451Z,99442.44
2023-05-01T07:14:37.448Z,99440.63
2023-05-01T07:17:04.263Z,99459.63
2023-05-01T07:19:30.972Z,99456.63
2023-05-01T07:21:58.070Z,99434.75
2023-05-01T07:24:25.147Z,99470.53
2023-05-01T07:26:52.087Z,99463.34
2023-05-01T07:29:18.882Z,99429.44
2023-05-01T07:31:46.540Z,99450.44
2023-05-01T07:34:13.745Z,99481.66
2023-05-01T07:36:41.645Z,99458.56
2023-05-01T07:39:08.407Z,99473.50
2023-05-01T07:41:35.076Z,99461.38
2023-05-01T07:44:03.620Z,99492.28
2023-05-01T07:46:30.403Z,99469.63
2023-05-01T07:48:57.149Z,99457.69
2023-05-01T07:51:24.095Z,99465.75
2023-05-01T07:53:50.861Z,99466.28
2023-05-01T07:56:17.619Z,99456.97
2023-05-01T07:58:44.464Z,99460.44
2023-05-01T08:01:11.372Z,99459.88
2023-05-01T08:03:38.182Z,99487.22
2023-05-01T08:06:05.896Z,99487.56
2023-05-01T08:08:32.642Z,99481.59
2023-05-01T08:10:59.297Z,99488.00
2023-05-01T08:13:26.134Z,99490.28
2023-05-01T08:15:53.214Z,99495.53
2023-05-01T08:18:21.287Z,99483.72
2023-05-01T08:20:48.448Z,99487.56
2023-05-01T08:23:18.755Z,99497.00
2023-05-01T08:25:51.164Z,99503.59
2023-05-01T08:28:20.929Z,99501.25
2023-05-01T08:30:49.346Z,99474.09
2023-05-01T08:33:16.544Z,99479.81
2023-05-01T08:35:43.424Z,99499.06
2023-05-01T08:38:11.866Z,99450.06
2023-05-01T08:40:38.952Z,99497.50
2023-05-01T08:43:05.721Z,99513.69
2023-05-01T08:45:36.297Z,99517.16
2023-05-01T08:48:06.748Z,99501.25
2023-05-01T08:50:36.564Z,99496.91
2023-05-01T08:53:04.400Z,99510.22
2023-05-01T08:55:32.594Z,99512.59
2023-05-01T08:57:59.726Z,99478.34
2023-05-01T09:00:29.032Z,99499.63
2023-05-01T09:02:56.512Z,99503.00
2023-05-01T09:05:23.273Z,99496.50
2023-05-01T09:07:50.231Z,99528.53
2023-05-01T09:10:20.492Z,99527.16
2023-05-01T09:12:56.483Z,99523.19
2023-05-01T09:15:24.609Z,99508.13
2023-05-01T09:17:51.488Z,99528.44
2023-05-01T09:20:19.795Z,99526.25
2023-05-01T09:22:46.751Z,99539.19
2023-05-01T09:25:13.592Z,99478.06
2023-05-01T09:27:40.344Z,99531.25
2023-05-01T09:30:07.816Z,99494.53
2023-05-01T09:32:42.481Z,99502.41
2023-05-01T09:35:14.951Z,99431.19
2023-05-01T09:37:42.204Z,99423.63
2023-05-01T09:40:09.182Z,99541.94
2023-05-01T09:42:56.351Z,99559.47
2023-05-01T09:45:23.750Z,99551.75
2023-05-01T09:47:50.872Z,99496.31
2023-05-01T09:50:39.249Z,99546.56
2023-05-01T09:53:06.746Z,99555.78
2023-05-01T09:55:36.718Z,99492.53
2023-05-01T09:58:03.804Z,99547.44
2023-05-01T10:00:30.888Z,99494.53
2023-05-01T10:02:57.690Z,99535.06
2023-05-01T10:05:24.798Z,99542.38
2023-05-01T10:08:02.517Z,99520.88
2023-05-01T10:10:29.656Z,99569.81
2023-05-01T10:12:56.771Z,99553.78
2023-05-01T10:15:26.998Z,99569.75
2023-05-01T10:17:55.026Z,99513.75
2023-05-01T10:20:22.515Z,99518.44
2023-05-01T10:22:49.861Z,99448.78
2023-05-01T10:25:18.175Z,99552.72
2023-05-01T10:27:45.342Z,99530.38
2023-05-01T10:30:12.773Z,99520.34
2023-05-01T10:32:41.373Z,99560.44
2023-05-01T10:35:13.252Z,99504.88
2023-05-01T10:37:56.581Z,99510.91
2023-05-01T10:40:45.582Z,99563.25
2023-05-01T10:43:16.106Z,99564.56
2023-05-01T10:46:08.270Z,99566.94
2023-05-01T10:48:47.599Z,99567.91
2023-05-01T10:51:27.184Z,99548.53
2023-05-01T10:54:13.036Z,99568.13
2023-05-01T10:56:39.725Z,99556.78
2023-05-01T10:59:06.862Z,99481.94
2023-05-01T11:01:45.632Z,99488.56
2023-05-01T11:04:27.512Z,99564.13
2023-05-01T11:07:21.668Z,99599.84
2023-05-01T11:09:59.143Z,99504.69
2023-05-01T11:12:58.594Z,99572.97
2023-05-01T11:15:29.429Z,99564.25
2023-05-01T11:17:57.363Z,99544.34
2023-05-01T11:20:27.258Z,99586.28
2023-05-01T11:22:57.814Z,99560.44
2023-05-01T11:25:31.554Z,99566.25
2023-05-01T11:27:59.816Z,99524.66
2023-05-01T11:30:26.860Z,99582.75
2023-05-01T11:32:53.762Z,99570.00
2023-05-01T11:35:22.777Z,99554.25
2023-05-01T11:37:51.462Z,99547.44
2023-05-01T11:40:29.676Z,99495.91
2023-05-01T11:43:07.228Z,99502.59
2023-05-01T11:45:37.964Z,99551.41
2023-05-01T11:48:05.715Z,99505.78
2023-05-01T11:50:35.860Z,99458.56
2023-05-01T11:53:04.019Z,99563.19
2023-05-01T11:55:32.628Z,99503.44
2023-05-01T11:57:59.541Z,99473.44
2023-05-01T12:00:34.851Z,99557.09
2023-05-01T12:03:08.700Z,99529.69
2023-05-01T12:05:37.531Z,99571.50
2023-05-01T12:08:07.453Z,99575.72
2023-05-01T12:10:35.694Z,99533.34
2023-05-01T12:13:04.125Z,99492.53
2023-05-01T12:15:34.775Z,99592.97
2023-05-01T12:18:01.557Z,99554.38
2023-05-01T12:20:41.938Z,99590.31
2023-05-01T12:23:11.633Z,99542.75
2023-05-01T12:25:39.924Z,99586.28
2023-05-01T12:28:13.200Z,99579.88
2023-05-01T12:30:40.611Z,99575.66
2023-05-01T12:33:11.724Z,99579.50
2023-05-01T12:35:39.669Z,99568.88
2023-05-01T12:38:23.710Z,99512.19
2023-05-01T12:40:59.821Z,99481.53
2023-05-01T12:43:37.136Z,99554.72
2023-05-01T12:46:05.444Z,99578.28
2023-05-01T12:48:34.451Z,99539.66
2023-05-01T12:51:06.852Z,99604.34
2023-05-01T12:53:33.803Z,99597.47
2023-05-01T12:56:01.434Z,99616.50
2023-05-01T12:58:36.340Z,99591.16
2023-05-01T13:01:03.104Z,99558.06
2023-05-01T13:03:31.035Z,99591.03
2023-05-01T13:06:01.749Z,99579.63
2023-05-01T13:08:33.323Z,99593.41
2023-05-01T13:11:13.284Z,99595.75
2023-05-01T13:13:41.024Z,99566.28
2023-05-01T13:16:16.311Z,99566.81
2023-05-01T13:18:47.997Z,99541.94
2023-05-01T13:21:19.776Z,99604.34
2023-05-01T13:24:04.919Z,99595.47
2023-05-01T13:26:33.739Z,99600.22
2023-05-01T13:29:02.156Z,99613.25
2023-05-01T13:31:29.586Z,99565.31
2023-05-01T13:33:58.412Z,99556.50
2023-05-01T13:36:32.412Z,99510.34
2023-05-01T13:38:59.445Z,99527.25
2023-05-01T13:41:27.712Z,99481.94
2023-05-01T13:43:56.447Z,99521.09
2023-05-01T13:46:35.200Z,99561.56
2023-05-01T13:49:08.301Z,99499.81
2023-05-01T13:51:37.816Z,99551.88
2023-05-01T13:54:04.963Z,99530.53
2023-05-01T13:56:34.409Z,99576.44
2023-05-01T13:59:01.404Z,99615.50
2023-05-01T14:01:28.212Z,99618.28
2023-05-01T14:04:00.566Z,99610.53
2023-05-01T14:06:28.904Z,99547.66
2023-05-01T14:08:58.440Z,99610.44
2023-05-01T14:11:25.214Z,99606.03
2023-05-01T14:13:52.301Z,99554.63
2023-05-01T14:16:27.301Z,99583.06
2023-05-01T14:18:57.169Z,99625.44
2023-05-01T14:21:27.403Z,99620.56
2023-05-01T14:23:54.738Z,99641.59
2023-05-01T14:26:22.146Z,99611.50
2023-05-01T14:28:49.222Z,99630.59
2023-05-01T14:31:30.352Z,99627.75
2023-05-01T14:34:01.008Z,99644.59
2023-05-01T14:36:31.188Z,99616.75
2023-05-01T14:38:59.306Z,99633.53
2023-05-01T14:41:26.202Z,99638.09
2023-05-01T14:43:53.951Z,99605.28
2023-05-01T14:46:31.632Z,99597.97
2023-05-01T14:48:59.523Z,99639.00
2023-05-01T14:51:27.359Z,99642.78
2023-05-01T14:53:54.316Z,99644.72
2023-05-01T14:56:21.573Z,99597.28
2023-05-01T14:58:49.517Z,99654.06
2023-05-01T15:01:17.019Z,99642.75
2023-05-01T15:03:44.205Z,99619.50
2023-05-01T15:06:11.547Z,99641.44
2023-05-01T15:08:38.915Z,99654.63
2023-05-01T15:11:05.911Z,99659.69
2023-05-01T15:13:32.685Z,99647.19
2023-05-01T15:15:59.475Z,99661.28
2023-05-01T15:18:26.479Z,99640.03
2023-05-01T15:20:53.445Z,99644.06
2023-05-01T15:23:20.385Z,99603.97
2023-05-01T15:25:50.986Z,99656.34
2023-05-01T15:28:19.312Z,99605.25
2023-05-01T15:30:47.180Z,99664.41
2023-05-01T15:33:17.134Z,99667.13
2023-05-01T15:35:46.328Z,99683.41
2023-05-01T15:38:13.415Z,99637.00
2023-05-01T15:40:40.221Z,99607.91
2023-05-01T15:43:06.999Z,99701.41
2023-05-01T15:45:33.944Z,99612.34
2023-05-01T15:48:01.351Z,99647.16
2023-05-01T15:50:28.539Z,99663.50
2023-05-01T15:52:55.237Z,99677.88
2023-05-01T15:55:22.199Z,99693.09
2023-05-01T15:57:49.151Z,99690.56
2023-05-01T16:00:17.355Z,99708.72
2023-05-01T16:02:44.830Z,99646.75
2023-05-01T16:05:12.612Z,99634.44
2023-05-01T16:07:39.565Z,99651.00
2023-05-01T16:10:08.517Z,99690.16
2023-05-01T16:12:35.267Z,99660.69
2023-05-01T16:15:05.206Z,99706.56
2023-05-01T16:17:33.684Z,99639.09
2023-05-01T16:20:02.604Z,99687.56
2023-05-01T16:22:29.762Z,99651.50
2023-05-01T16:24:59.888Z,99715.22
2023-05-01T16:27:26.628Z,99688.72
2023-05-01T16:29:53.266Z,99734.25
2023-05-01T16:32:20.875Z,99722.94
2023-05-01T16:34:49.432Z,99741.16
2023-05-01T16:37:17.587Z,99724.19
2023-05-01T16:39:44.659Z,99736.44
2023-05-01T16:42:14.878Z,99701.09
2023-05-01T16:44:41.574Z,99708.97
2023-05-01T16:47:11.647Z,99741.16
2023-05-01T16:49:42.100Z,99746.34
2023-05-01T16:52:13.550Z,99749.88
2023-05-01T16:54:40.197Z,99693.66
2023-05-01T16:57:07.768Z,99714.59
2023-05-01T16:59:34.763Z,99703.00
2023-05-01T17:02:01.499Z,99717.41
2023-05-01T17:04:28.767Z,99773.31
2023-05-01T17:06:56.285Z,99791.19
2023-05-01T17:09:23.169Z,99784.19
2023-05-01T17:11:49.904Z,99775.47
2023-05-01T17:14:16.660Z,99747.97
2023-05-01T17:16:43.462Z,99720.16
2023-05-01T17:19:10.265Z,99745.41
2023-05-01T17:21:37.034Z,99765.22
2023-05-01T17:24:04.591Z,99798.44
2023-05-01T17:26:31.603Z,99813.53
2023-05-01T17:28:58.385Z,99734.84
2023-05-01T17:31:25.258Z,99778.56
2023-05-01T17:33:52.033Z,99785.81
2023-05-01T17:36:19.102Z,99810.41
2023-05-01T17:38:45.967Z,99794.41
2023-05-01T17:41:12.670Z,99812.78
2023-05-01T17:43:39.526Z,99815.56
2023-05-01T17:46:06.633Z,99830.25
2023-05-01T17:48:35.234Z,99840.63
2023-05-01T17:51:02.079Z,99836.66
2023-05-01T17:53:28.899Z,99838.19
2023-05-01T17:55:55.636Z,99844.22
2023-05-01T17:58:22.380Z,99843.41
2023-05-01T18:00:49.132Z,99814.91
2023-05-01T18:03:16.098Z,99849.28
2023-05-01T18:05:44.420Z,99823.03
2023-05-01T18:08:11.938Z,99853.34
2023-05-01T18:10:38.690Z,99840.94
2023-05-01T18:13:05.483Z,99861.75
2023-05-01T18:15:32.328Z,99858.44
2023-05-01T18:18:23.504Z,99855.56
2023-05-01T18:20:50.383Z,99850.63
2023-05-01T18:23:22.210Z,99812.56
2023-05-01T18:25:48.948Z,99838.66
2023-05-01T18:28:16.593Z,99861.03
2023-05-01T18:30:43.356Z,99866.50
2023-05-01T18:33:13.183Z,99871.53
2023-05-01T18:35:42.224Z,99884.44
2023-05-01T18:38:10.066Z,99849.19
2023-05-01T18:40:39.657Z,99885.78
2023-05-01T18:43:06.527Z,99874.19
2023-05-01T18:45:33.285Z,99874.38
2023-05-01T18:48:00.739Z,99879.00
2023-05-01T18:50:27.846Z,99885.94
2023-05-01T18:52:54.503Z,99865.06
2023-05-01T18:55:21.273Z,99899.22
2023-05-01T18:57:48.610Z,99898.50
2023-05-01T19:00:18.104Z,99868.16
2023-05-01T19:02:51.381Z,99900.09
2023-05-01T19:05:18.951Z,99851.81
2023-05-01T19:07:45.699Z,99804.59
2023-05-01T19:10:12.463Z,99880.19
2023-05-01T19:12:39.660Z,99896.50
2023-05-01T19:15:09.342Z,99895.94
2023-05-01T19:17:36.115Z,99878.28
2023-05-01T19:20:04.683Z,99875.16
2023-05-01T19:22:31.521Z,99927.94
2023-05-01T19:25:00.450Z,99915.19
2023-05-01T19:27:27.374Z,99923.34
2023-05-01T19:29:54.735Z,99909.41
2023-05-01T19:32:23.211Z,99927.66
2023-05-01T19:34:50.124Z,99915.66
2023-05-01T19:37:17.405Z,99915.66
2023-05-01T19:39:44.231Z,99934.00
2023-05-01T19:42:11.884Z,99938.47
2023-05-01T19:44:38.582Z,99892.59
2023-05-01T19:47:05.373Z,99939.00
2023-05-01T19:49:32.042Z,99916.72
2023-05-01T19:51:58.780Z,99896.63
2023-05-01T19:54:26.387Z,99910.88
2023-05-01T19:56:53.210Z,99882.53
2023-05-01T19:59:19.981Z,99957.94
2023-05-01T20:01:46.939Z,99931.66
2023-05-01T20:04:13.987Z,99900.47
2023-05-01T20:06:40.857Z,99959.56
2023-05-01T20:09:07.807Z,99955.31
2023-05-01T20:11:34.543Z,99889.41
2023-05-01T20:14:03.622Z,99829.25
2023-05-01T20:16:31.092Z,99892.63
2023-05-01T20:18:57.931Z,99912.28
2023-05-01T20:21:24.711Z,99918.72
2023-05-01T20:23:51.509Z,99965.94
2023-05-01T20:26:19.126Z,99952.06
2023-05-01T20:28:46.065Z,99907.34
2023-05-01T20:31:13.648Z,99979.94
2023-05-01T20:33:40.482Z,99960.03
2023-05-01T20:36:07.437Z,99969.34
2023-05-01T20:38:40.876Z,99962.13
2023-05-01T20:41:07.672Z,99923.88
2023-05-01T20:43:34.510Z,99975.94
2023-05-01T20:46:01.377Z,99956.50
2023-05-01T20:48:28.164Z,99903.75
2023-05-01T20:50:55.109Z,99927.00
2023-05-01T20:53:21.831Z,99954.59
2023-05-01T20:55:49.953Z,99976.22
2023-05-01T20:58:16.872Z,99967.81
2023-05-01T21:00:43.588Z,99927.38
2023-05-01T21:03:10.598Z,99972.50
2023-05-01T21:05:37.390Z,99984.72
2023-05-01T21:08:04.238Z,99985.34
2023-05-01T21:10:31.698Z,99999.28
2023-05-01T21:12:58.728Z,99967.31
2023-05-01T21:15:27.062Z,99972.78
2023-05-01T21:17:53.754Z,100002.91
2023-05-01T21:20:30.885Z,99969.69
2023-05-01T21:22:57.666Z,100002.25
2023-05-01T21:25:27.090Z,99996.00
2023-05-01T21:27:54.199Z,100018.50
2023-05-01T21:30:33.190Z,100004.53
2023-05-01T21:33:01.001Z,100013.22
2023-05-01T21:35:28.558Z,100009.66
2023-05-01T21:37:55.474Z,100023.53
2023-05-01T21:40:22.211Z,100003.28
2023-05-01T21:42:48.990Z,100002.66
2023-05-01T21:45:18.425Z,99986.69
2023-05-01T21:47:47.978Z,99994.44
2023-05-01T21:50:16.313Z,100018.75
2023-05-01T21:52:44.205Z,100024.78
2023-05-01T21:55:17.570Z,100020.28
2023-05-01T21:57:44.621Z,100004.66
2023-05-01T22:00:12.548Z,100032.13
2023-05-01T22:02:44.481Z,100002.28
2023-05-01T22:05:13.035Z,100039.97
2023-05-01T22:07:47.121Z,100048.28
2023-05-01T22:10:17.392Z,100051.53
2023-05-01T22:12:44.966Z,100048.34
2023-05-01T22:15:12.715Z,100023.41
2023-05-01T22:36:06.015Z,100060.47
2023-05-01T22:38:34.273Z,100018.88
2023-05-01T22:41:00.956Z,100024.91
2023-05-01T22:43:27.674Z,100042.00
2023-05-01T22:45:54.432Z,100075.06
2023-05-01T22:48:21.272Z,100026.06
2023-05-01T22:50:48.162Z,100054.91
2023-05-01T22:53:14.902Z,100033.13
2023-05-01T22:55:41.731Z,100051.50
2023-05-01T22:58:08.513Z,100068.66
2023-05-01T23:00:35.197Z,100039.56
2023-05-01T23:03:02.056Z,100038.97
2023-05-01T23:05:29.484Z,100076.53
2023-05-01T23:07:56.220Z,100054.56
2023-05-01T23:10:24.491Z,100059.41
2023-05-01T23:12:51.229Z,100073.44
2023-05-01T23:15:23.374Z,100078.63
2023-05-01T23:17:50.718Z,100078.19
2023-05-01T23:20:24.693Z,100055.38
2023-05-01T23:22:51.828Z,100060.00
2023-05-01T23:25:24.506Z,100047.75
2023-05-01T23:27:52.721Z,100059.94
2023-05-01T23:30:22.870Z,100015.31
2023-05-01T23:32:49.654Z,100062.25
2023-05-01T23:35:24.007Z,100074.47
2023-05-01T23:37:53.009Z,100067.94
2023-05-01T23:40:19.940Z,100019.16
2023-05-01T23:42:46.834Z,100041.91
2023-05-01T23:45:13.565Z,100041.03
2023-05-01T23:47:40.962Z,100072.16
2023-05-01T23:50:08.061Z,100082.66
2023-05-01T23:52:35.172Z,100042.28
2023-05-01T23:55:01.835Z,100089.38
2023-05-01T23:57:28.578Z,100106.03
2023-05-01T23:59:55.577Z,100096.59
